createdAt,value
2022-09-27T00:01:19.251Z,100.00
2022-09-27T00:03:47.851Z,100.00
2022-09-27T00:06:25.399Z,100.00
2022-09-27T00:08:54.016Z,100.00
2022-09-27T00:11:29.793Z,100.00
2022-09-27T00:14:00.773Z,100.00
2022-09-27T00:16:32.805Z,100.00
2022-09-27T00:19:04.677Z,100.00
2022-09-27T00:21:35.373Z,100.00
2022-09-27T00:24:04.341Z,100.00
2022-09-27T00:26:33.207Z,100.00
2022-09-27T00:29:01.956Z,100.00
2022-09-27T00:31:32.633Z,100.00
2022-09-27T00:34:03.897Z,100.00
2022-09-27T00:36:35.509Z,100.00
2022-09-27T00:39:04.502Z,100.00
2022-09-27T00:41:36.991Z,100.00
2022-09-27T00:44:59.937Z,100.00
2022-09-27T00:47:37.109Z,100.00
2022-09-27T00:50:15.559Z,100.00
2022-09-27T00:52:55.302Z,100.00
2022-09-27T00:55:31.464Z,100.00
2022-09-27T00:58:00.882Z,100.00
2022-09-27T01:00:29.671Z,100.00
2022-09-27T01:02:59.307Z,100.00
2022-09-27T01:05:30.365Z,100.00
2022-09-27T01:08:01.208Z,100.00
2022-09-27T01:10:40.253Z,100.00
2022-09-27T01:13:20.305Z,100.00
2022-09-27T01:15:59.668Z,100.00
2022-09-27T01:18:39.988Z,100.00
2022-09-27T01:21:43.567Z,100.00
2022-09-27T01:24:56.507Z,100.00
2022-09-27T01:28:11.526Z,100.00
2022-09-27T01:30:51.344Z,100.00
2022-09-27T01:33:37.936Z,100.00
2022-09-27T01:36:23.600Z,100.00
2022-09-27T01:39:19.881Z,100.00
2022-09-27T01:42:25.172Z,100.00
2022-09-27T01:45:07.828Z,100.00
2022-09-27T01:47:53.133Z,100.00
2022-09-27T01:50:47.484Z,100.00
2022-09-27T01:53:23.086Z,100.00
2022-09-27T01:56:16.206Z,100.00
2022-09-27T01:59:11.203Z,100.00
2022-09-27T02:01:51.755Z,100.00
2022-09-27T02:04:29.696Z,100.00
2022-09-27T02:07:17.939Z,100.00
2022-09-27T02:09:54.237Z,100.00
2022-09-27T02:12:36.652Z,100.00
2022-09-27T02:15:15.402Z,100.00
2022-09-27T02:17:59.373Z,100.00
2022-09-27T02:20:36.145Z,100.00
2022-09-27T02:23:20.186Z,100.00
2022-09-27T02:25:58.542Z,100.00
2022-09-27T02:28:34.184Z,100.00
2022-09-27T02:31:03.520Z,100.00
2022-09-27T02:33:43.501Z,100.00
2022-09-27T02:36:15.266Z,100.00
2022-09-27T02:38:45.523Z,100.00
2022-09-27T02:41:18.267Z,100.00
2022-09-27T02:43:53.345Z,100.00
2022-09-27T02:46:58.593Z,100.00
2022-09-27T02:50:04.449Z,100.00
2022-09-27T02:53:08.041Z,100.00
2022-09-27T02:55:54.188Z,100.00
2022-09-27T02:58:59.882Z,100.00
2022-09-27T03:01:57.934Z,100.00
2022-09-27T03:04:42.049Z,100.00
2022-09-27T03:07:11.249Z,100.00
2022-09-27T03:09:48.205Z,100.00
2022-09-27T03:12:22.710Z,100.00
2022-09-27T03:14:51.500Z,100.00
2022-09-27T03:17:55.276Z,100.00
2022-09-27T03:20:42.635Z,100.00
2022-09-27T03:23:17.032Z,100.00
2022-09-27T03:25:47.477Z,100.00
2022-09-27T03:28:16.721Z,100.00
2022-09-27T03:30:47.573Z,100.00
2022-09-27T03:33:36.311Z,100.00
2022-09-27T03:36:09.764Z,100.00
2022-09-27T03:38:39.240Z,100.00
2022-09-27T03:41:12.072Z,100.00
2022-09-27T03:43:41.472Z,100.00
2022-09-27T03:46:10.173Z,100.00
2022-09-27T03:48:39.048Z,100.00
2022-09-27T03:51:08.482Z,100.00
2022-09-27T03:53:37.199Z,100.00
2022-09-27T03:56:06.539Z,100.00
2022-09-27T03:58:37.709Z,100.00
2022-09-27T04:01:07.251Z,100.00
2022-09-27T04:03:38.251Z,100.00
2022-09-27T04:06:28.328Z,100.00
2022-09-27T04:08:57.209Z,100.00
2022-09-27T04:11:34.189Z,100.00
2022-09-27T04:14:05.664Z,100.00
2022-09-27T04:16:41.636Z,100.00
2022-09-27T04:19:31.191Z,100.00
2022-09-27T04:22:08.946Z,100.00
2022-09-27T04:24:37.973Z,100.00
2022-09-27T04:27:22.069Z,100.00
2022-09-27T04:29:54.296Z,100.00
2022-09-27T04:32:43.942Z,100.00
2022-09-27T04:35:53.381Z,100.00
2022-09-27T04:38:24.113Z,100.00
2022-09-27T04:40:53.357Z,100.00
2022-09-27T04:43:22.686Z,100.00
2022-09-27T04:45:52.699Z,100.00
2022-09-27T04:48:21.776Z,100.00
2022-09-27T04:50:58.499Z,100.00
2022-09-27T04:53:27.589Z,100.00
2022-09-27T04:55:56.930Z,100.00
2022-09-27T04:58:26.637Z,100.00
2022-09-27T05:00:57.068Z,100.00
2022-09-27T05:03:43.876Z,100.00
2022-09-27T05:06:14.831Z,100.00
2022-09-27T05:08:45.690Z,100.00
2022-09-27T05:11:17.273Z,100.00
2022-09-27T05:14:06.183Z,100.00
2022-09-27T05:16:45.310Z,100.00
2022-09-27T05:19:43.179Z,100.00
2022-09-27T05:22:17.698Z,100.00
2022-09-27T05:24:47.197Z,100.00
2022-09-27T05:27:20.541Z,100.00
2022-09-27T05:29:50.276Z,100.00
2022-09-27T05:32:27.193Z,100.00
2022-09-27T05:35:23.037Z,100.00
2022-09-27T05:37:57.367Z,100.00
2022-09-27T05:40:44.712Z,100.00
2022-09-27T05:43:13.888Z,100.00
2022-09-27T05:45:44.221Z,100.00
2022-09-27T05:48:15.636Z,100.00
2022-09-27T05:50:49.123Z,100.00
2022-09-27T05:53:18.778Z,100.00
2022-09-27T05:55:48.722Z,100.00
2022-09-27T05:58:19.375Z,100.00
2022-09-27T06:00:54.280Z,100.00
2022-09-27T06:03:47.792Z,100.00
2022-09-27T06:06:16.710Z,100.00
2022-09-27T06:08:51.037Z,100.00
2022-09-27T06:11:21.302Z,100.00
2022-09-27T06:13:51.947Z,100.00
2022-09-27T06:16:21.264Z,100.00
2022-09-27T06:18:52.141Z,100.00
2022-09-27T06:21:21.378Z,100.00
2022-09-27T06:23:56.575Z,100.00
2022-09-27T06:26:31.866Z,100.00
2022-09-27T06:29:15.682Z,100.00
2022-09-27T06:31:52.690Z,100.00
2022-09-27T06:34:32.756Z,100.00
2022-09-27T06:37:01.522Z,100.00
2022-09-27T06:39:33.282Z,100.00
2022-09-27T06:42:30.543Z,100.00
2022-09-27T06:45:12.606Z,100.00
2022-09-27T06:48:02.585Z,100.00
2022-09-27T06:50:49.186Z,100.00
2022-09-27T06:53:18.884Z,100.00
2022-09-27T06:55:47.598Z,100.00
2022-09-27T06:58:34.062Z,100.00
2022-09-27T07:01:29.829Z,100.00
2022-09-27T07:04:27.220Z,100.00
2022-09-27T07:07:07.003Z,100.00
2022-09-27T07:10:03.349Z,100.00
2022-09-27T07:12:37.630Z,100.00
2022-09-27T07:15:07.681Z,100.00
2022-09-27T07:17:37.471Z,100.00
2022-09-27T07:20:07.766Z,100.00
2022-09-27T07:22:43.171Z,100.00
2022-09-27T07:25:13.615Z,100.00
2022-09-27T07:27:42.369Z,100.00
2022-09-27T07:30:13.867Z,100.00
2022-09-27T07:32:43.517Z,100.00
2022-09-27T07:35:15.633Z,100.00
2022-09-27T07:37:47.265Z,100.00
2022-09-27T07:40:16.063Z,100.00
2022-09-27T07:42:44.671Z,100.00
2022-09-27T07:45:14.042Z,100.00
2022-09-27T07:48:05.542Z,100.00
2022-09-27T07:50:54.146Z,100.00
2022-09-27T07:53:43.405Z,100.00
2022-09-27T07:56:41.101Z,100.00
2022-09-27T07:59:12.960Z,100.00
2022-09-27T08:01:41.905Z,100.00
2022-09-27T08:04:10.882Z,100.00
2022-09-27T08:06:40.057Z,100.00
2022-09-27T08:09:10.441Z,100.00
2022-09-27T08:11:41.098Z,100.00
2022-09-27T08:14:11.685Z,100.00
2022-09-27T08:16:42.756Z,100.00
2022-09-27T08:19:20.098Z,100.00
2022-09-27T08:22:24.833Z,100.00
2022-09-27T08:25:01.752Z,100.00
2022-09-27T08:27:44.875Z,100.00
2022-09-27T08:30:21.669Z,100.00
2022-09-27T08:32:50.257Z,100.00
2022-09-27T08:35:18.941Z,100.00
2022-09-27T08:37:55.734Z,100.00
2022-09-27T08:40:39.154Z,100.00
2022-09-27T08:43:21.266Z,100.00
2022-09-27T08:46:08.773Z,100.00
2022-09-27T08:48:41.135Z,100.00
2022-09-27T08:51:15.622Z,100.00
2022-09-27T08:53:52.271Z,100.00
2022-09-27T08:56:24.241Z,100.00
2022-09-27T08:58:59.887Z,100.00
2022-09-27T09:01:35.320Z,100.00
2022-09-27T09:04:29.837Z,100.00
2022-09-27T09:07:16.247Z,100.00
2022-09-27T09:09:59.834Z,100.00
2022-09-27T09:12:50.106Z,100.00
2022-09-27T09:15:54.050Z,100.00
2022-09-27T09:18:45.068Z,100.00
2022-09-27T09:21:35.551Z,100.00
2022-09-27T09:24:25.617Z,100.00
2022-09-27T09:27:05.558Z,100.00
2022-09-27T09:30:30.281Z,100.00
2022-09-27T09:33:24.183Z,100.00
2022-09-27T09:36:02.640Z,100.00
2022-09-27T09:38:42.893Z,100.00
2022-09-27T09:41:24.735Z,100.00
2022-09-27T09:44:00.426Z,100.00
2022-09-27T09:46:40.185Z,100.00
2022-09-27T09:49:22.247Z,100.00
2022-09-27T09:51:58.205Z,100.00
2022-09-27T09:54:34.533Z,100.00
2022-09-27T09:57:13.994Z,100.00
2022-09-27T09:59:50.693Z,100.00
2022-09-27T10:02:31.246Z,100.00
2022-09-27T10:05:08.385Z,100.00
2022-09-27T10:07:40.868Z,100.00
2022-09-27T10:10:15.444Z,100.00
2022-09-27T10:13:19.810Z,100.00
2022-09-27T10:16:04.312Z,100.00
2022-09-27T10:18:39.817Z,100.00
2022-09-27T10:21:16.722Z,100.00
2022-09-27T10:24:12.421Z,100.00
2022-09-27T10:27:02.340Z,100.00
2022-09-27T10:29:38.266Z,100.00
2022-09-27T10:32:30.875Z,100.00
2022-09-27T10:35:37.960Z,100.00
2022-09-27T10:38:27.756Z,100.00
2022-09-27T10:41:25.087Z,100.00
2022-09-27T10:44:24.952Z,100.00
2022-09-27T10:47:13.987Z,100.00
2022-09-27T10:50:07.835Z,100.00
2022-09-27T10:53:14.153Z,100.00
2022-09-27T10:55:48.745Z,100.00
2022-09-27T10:58:27.060Z,100.00
2022-09-27T11:01:01.334Z,100.00
2022-09-27T11:03:34.268Z,100.00
2022-09-27T11:06:29.106Z,100.00
2022-09-27T11:09:18.938Z,100.00
2022-09-27T11:11:50.858Z,100.00
2022-09-27T11:14:23.304Z,100.00
2022-09-27T11:17:20.817Z,100.00
2022-09-27T11:20:16.633Z,100.00
2022-09-27T11:23:18.804Z,100.00
2022-09-27T11:26:10.465Z,100.00
2022-09-27T11:28:57.542Z,100.00
2022-09-27T11:32:13.541Z,100.00
2022-09-27T11:35:11.765Z,98.70
2022-09-27T11:37:51.212Z,96.71
2022-09-27T11:40:36.516Z,95.05
2022-09-27T11:43:30.831Z,93.86
2022-09-27T11:46:23.892Z,92.44
2022-09-27T11:49:27.450Z,90.31
2022-09-27T11:52:34.412Z,88.40
2022-09-27T11:55:21.281Z,89.15
2022-09-27T11:58:02.022Z,89.39
2022-09-27T12:00:53.236Z,88.14
2022-09-27T12:04:22.248Z,88.41
2022-09-27T12:07:02.538Z,87.24
2022-09-27T12:09:40.539Z,86.60
2022-09-27T12:12:19.321Z,85.55
2022-09-27T12:14:56.880Z,87.75
2022-09-27T12:17:32.293Z,87.38
2022-09-27T12:20:11.601Z,86.00
2022-09-27T12:22:59.506Z,87.12
2022-09-27T12:26:14.478Z,87.99
2022-09-27T12:28:52.133Z,87.32
2022-09-27T12:31:30.040Z,86.57
2022-09-27T12:34:19.948Z,85.94
2022-09-27T12:37:00.217Z,83.95
2022-09-27T12:39:44.178Z,82.85
2022-09-27T12:42:30.601Z,83.71
2022-09-27T12:45:03.011Z,82.88
2022-09-27T12:48:01.788Z,83.13
2022-09-27T12:50:41.210Z,83.23
2022-09-27T12:53:23.372Z,84.15
2022-09-27T12:56:10.848Z,85.33
2022-09-27T12:59:01.477Z,84.17
2022-09-27T13:02:01.079Z,84.17
2022-09-27T13:04:53.590Z,84.71
2022-09-27T13:07:47.553Z,84.30
2022-09-27T13:10:49.362Z,84.59
2022-09-27T13:13:39.952Z,83.79
2022-09-27T13:16:12.368Z,83.16
2022-09-27T13:19:01.631Z,82.23
2022-09-27T13:21:59.491Z,81.35
2022-09-27T13:24:56.235Z,82.22
2022-09-27T13:27:43.958Z,81.09
2022-09-27T13:30:47.541Z,81.51
2022-09-27T13:33:44.304Z,81.56
2022-09-27T13:36:32.621Z,82.12
2022-09-27T13:39:22.775Z,82.01
2022-09-27T13:42:39.423Z,81.39
2022-09-27T13:45:24.556Z,81.71
2022-09-27T13:47:57.054Z,83.05
2022-09-27T13:50:47.096Z,82.23
2022-09-27T13:53:29.351Z,82.57
2022-09-27T13:55:59.258Z,82.62
2022-09-27T13:58:53.483Z,81.73
2022-09-27T14:01:48.293Z,83.31
2022-09-27T14:04:24.143Z,83.90
2022-09-27T14:06:58.377Z,82.11
2022-09-27T14:09:33.036Z,83.04
2022-09-27T14:12:14.250Z,83.01
2022-09-27T14:14:45.645Z,82.45
2022-09-27T14:17:14.729Z,83.66
2022-09-27T14:19:48.647Z,83.58
2022-09-27T14:22:21.610Z,82.80
2022-09-27T14:25:20.527Z,83.41
2022-09-27T14:27:53.422Z,83.85
2022-09-27T14:30:46.727Z,84.52
2022-09-27T14:33:35.966Z,84.77
2022-09-27T14:36:45.218Z,84.32
2022-09-27T14:39:17.498Z,85.68
2022-09-27T14:41:48.131Z,84.99
2022-09-27T14:44:21.751Z,85.57
2022-09-27T14:47:12.009Z,85.63
2022-09-27T14:49:48.717Z,86.98
2022-09-27T14:52:24.311Z,86.96
2022-09-27T14:55:02.402Z,86.13
2022-09-27T14:57:35.340Z,86.87
2022-09-27T15:00:19.076Z,87.16
2022-09-27T15:02:54.339Z,88.08
2022-09-27T15:05:26.291Z,87.39
2022-09-27T15:07:58.266Z,86.51
2022-09-27T15:10:33.456Z,87.42
2022-09-27T15:13:05.171Z,87.14
2022-09-27T15:15:36.674Z,87.12
2022-09-27T15:18:43.158Z,87.85
2022-09-27T15:21:15.717Z,87.72
2022-09-27T15:23:46.863Z,88.48
2022-09-27T15:26:21.670Z,88.51
2022-09-27T15:28:53.165Z,87.64
2022-09-27T15:31:31.233Z,88.65
2022-09-27T15:34:02.272Z,88.87
2022-09-27T15:36:55.753Z,87.75
2022-09-27T15:39:32.405Z,87.85
2022-09-27T15:42:10.549Z,88.45
2022-09-27T15:44:47.992Z,88.04
2022-09-27T15:47:49.757Z,87.76
2022-09-27T15:50:41.223Z,87.71
2022-09-27T15:53:11.347Z,87.71
2022-09-27T15:55:45.263Z,88.74
2022-09-27T15:58:19.458Z,88.08
2022-09-27T16:00:57.690Z,88.57
2022-09-27T16:03:28.114Z,88.88
2022-09-27T16:06:01.228Z,90.09
2022-09-27T16:08:30.580Z,89.59
2022-09-27T16:11:03.341Z,90.57
2022-09-27T16:13:33.271Z,90.25
2022-09-27T16:16:04.232Z,91.36
2022-09-27T16:18:33.860Z,91.34
2022-09-27T16:21:04.252Z,91.44
2022-09-27T16:23:32.880Z,91.93
2022-09-27T16:26:01.424Z,92.19
2022-09-27T16:28:30.239Z,92.01
2022-09-27T16:31:05.023Z,92.65
2022-09-27T16:33:35.802Z,93.10
2022-09-27T16:36:14.533Z,92.89
2022-09-27T16:38:44.101Z,92.30
2022-09-27T16:41:12.894Z,92.77
2022-09-27T16:43:41.555Z,93.47
2022-09-27T16:46:11.777Z,93.59
2022-09-27T16:48:40.857Z,94.08
2022-09-27T16:51:35.002Z,94.24
2022-09-27T16:54:05.677Z,94.90
2022-09-27T16:56:35.697Z,95.52
2022-09-27T16:59:07.291Z,95.93
2022-09-27T17:01:36.613Z,96.55
2022-09-27T17:04:05.497Z,96.91
2022-09-27T17:06:36.855Z,97.30
2022-09-27T17:09:06.216Z,98.29
2022-09-27T17:11:35.156Z,98.87
2022-09-27T17:14:04.156Z,98.90
2022-09-27T17:16:33.145Z,99.27
2022-09-27T17:19:02.510Z,99.48
2022-09-27T17:21:35.636Z,99.92
2022-09-27T17:24:08.860Z,100.00
2022-09-27T17:26:37.830Z,100.00
2022-09-27T17:29:08.330Z,100.00
2022-09-27T17:31:40.617Z,100.00
2022-09-27T17:34:12.934Z,100.00
2022-09-27T17:36:48.192Z,100.00
2022-09-27T17:39:22.379Z,100.00
2022-09-27T17:41:51.740Z,100.00
2022-09-27T17:44:21.016Z,100.00
2022-09-27T17:47:10.494Z,100.00
2022-09-27T17:49:56.851Z,100.00
2022-09-27T17:52:25.867Z,100.00
2022-09-27T17:54:57.608Z,100.00
2022-09-27T17:57:26.722Z,100.00
2022-09-27T17:59:55.718Z,100.00
2022-09-27T18:02:24.478Z,100.00
2022-09-27T18:04:53.246Z,100.00
2022-09-27T18:07:22.311Z,100.00
2022-09-27T18:09:51.335Z,100.00
2022-09-27T18:12:21.901Z,100.00
2022-09-27T18:14:50.986Z,100.00
2022-09-27T18:17:19.723Z,100.00
2022-09-27T18:19:48.411Z,100.00
2022-09-27T18:22:17.397Z,100.00
2022-09-27T18:24:46.148Z,100.00
2022-09-27T18:27:18.245Z,100.00
2022-09-27T18:29:48.782Z,100.00
2022-09-27T18:32:17.642Z,100.00
2022-09-27T18:34:46.324Z,100.00
2022-09-27T18:37:15.255Z,100.00
2022-09-27T18:39:43.923Z,100.00
2022-09-27T18:42:12.715Z,100.00
2022-09-27T18:44:41.757Z,100.00
2022-09-27T18:47:11.806Z,100.00
2022-09-27T18:49:40.489Z,100.00
2022-09-27T18:52:09.419Z,100.00
2022-09-27T18:54:38.565Z,100.00
2022-09-27T18:57:07.271Z,100.00
2022-09-27T18:59:36.233Z,100.00
2022-09-27T19:02:05.097Z,100.00
2022-09-27T19:04:36.273Z,100.00
2022-09-27T19:07:05.141Z,100.00
2022-09-27T19:09:33.981Z,100.00
2022-09-27T19:12:03.305Z,100.00
2022-09-27T19:14:32.187Z,100.00
2022-09-27T19:17:00.870Z,100.00
2022-09-27T19:19:29.754Z,100.00
2022-09-27T19:21:59.951Z,100.00
2022-09-27T19:24:28.940Z,100.00
2022-09-27T19:26:57.536Z,100.00
2022-09-27T19:29:26.823Z,100.00
2022-09-27T19:31:55.469Z,100.00
2022-09-27T19:34:24.012Z,100.00
2022-09-27T19:36:52.777Z,100.00
2022-09-27T19:39:22.734Z,100.00
2022-09-27T19:41:51.321Z,100.00
2022-09-27T19:44:20.060Z,100.00
2022-09-27T19:46:48.646Z,100.00
2022-09-27T19:49:18.847Z,100.00
2022-09-27T19:51:47.593Z,100.00
2022-09-27T19:54:16.490Z,100.00
2022-09-27T19:56:46.862Z,100.00
2022-09-27T19:59:15.962Z,100.00
2022-09-27T20:01:44.714Z,100.00
2022-09-27T20:04:14.590Z,99.25
2022-09-27T20:06:43.172Z,99.45
2022-09-27T20:09:12.119Z,100.00
2022-09-27T20:11:40.694Z,100.00
2022-09-27T20:14:10.729Z,99.59
2022-09-27T20:16:41.551Z,99.89
2022-09-27T20:19:11.610Z,99.75
2022-09-27T20:21:40.911Z,99.78
2022-09-27T20:24:09.495Z,99.96
2022-09-27T20:26:38.209Z,100.00
2022-09-27T20:29:08.113Z,100.00
2022-09-27T20:31:56.984Z,100.00
2022-09-27T20:34:31.207Z,100.00
2022-09-27T20:36:59.746Z,100.00
2022-09-27T20:39:28.284Z,100.00
2022-09-27T20:41:57.046Z,100.00
2022-09-27T20:44:26.230Z,100.00
2022-09-27T20:46:56.150Z,100.00
2022-09-27T20:49:25.104Z,100.00
2022-09-27T20:51:53.621Z,100.00
2022-09-27T20:54:22.360Z,100.00
2022-09-27T20:56:51.365Z,100.00
2022-09-27T20:59:22.857Z,100.00
2022-09-27T21:01:53.451Z,100.00
2022-09-27T21:04:23.722Z,100.00
2022-09-27T21:06:53.134Z,100.00
2022-09-27T21:09:21.651Z,100.00
2022-09-27T21:11:51.884Z,100.00
2022-09-27T21:14:21.112Z,100.00
2022-09-27T21:16:49.831Z,100.00
2022-09-27T21:19:19.283Z,100.00
2022-09-27T21:21:51.912Z,100.00
2022-09-27T21:24:20.471Z,100.00
2022-09-27T21:26:49.927Z,100.00
2022-09-27T21:29:18.817Z,100.00
2022-09-27T21:31:47.427Z,100.00
2022-09-27T21:34:16.180Z,100.00
2022-09-27T21:36:44.765Z,100.00
2022-09-27T21:39:15.473Z,100.00
2022-09-27T21:41:44.237Z,100.00
2022-09-27T21:44:13.133Z,100.00
2022-09-27T21:46:43.896Z,100.00
2022-09-27T21:49:13.013Z,100.00
2022-09-27T21:51:44.523Z,100.00
2022-09-27T21:54:16.529Z,100.00
2022-09-27T21:56:45.798Z,100.00
2022-09-27T21:59:18.197Z,100.00
2022-09-27T22:01:47.891Z,100.00
2022-09-27T22:04:17.052Z,100.00
2022-09-27T22:06:45.672Z,100.00
2022-09-27T22:09:19.766Z,100.00
2022-09-27T22:11:48.279Z,100.00
2022-09-27T22:14:19.817Z,100.00
2022-09-27T22:16:48.868Z,100.00
2022-09-27T22:19:18.131Z,100.00
2022-09-27T22:21:47.305Z,100.00
2022-09-27T22:24:19.269Z,100.00
2022-09-27T22:26:52.858Z,100.00
2022-09-27T22:29:22.062Z,100.00
2022-09-27T22:31:50.879Z,100.00
2022-09-27T22:34:29.017Z,100.00
2022-09-27T22:37:00.881Z,100.00
2022-09-27T22:39:30.808Z,100.00
2022-09-27T22:41:59.552Z,100.00
2022-09-27T22:44:28.001Z,100.00
2022-09-27T22:46:56.794Z,100.00
2022-09-27T22:49:25.660Z,100.00
2022-09-27T22:51:54.191Z,100.00
2022-09-27T22:54:22.897Z,100.00
2022-09-27T22:56:57.409Z,100.00
2022-09-27T22:59:26.724Z,100.00
2022-09-27T23:01:56.149Z,100.00
2022-09-27T23:04:24.798Z,100.00
2022-09-27T23:06:53.473Z,100.00
2022-09-27T23:09:22.209Z,100.00
2022-09-27T23:11:52.073Z,100.00
2022-09-27T23:14:21.980Z,100.00
2022-09-27T23:16:50.732Z,100.00
2022-09-27T23:19:21.930Z,100.00
2022-09-27T23:21:50.650Z,100.00
2022-09-27T23:24:20.113Z,100.00
2022-09-27T23:27:09.009Z,100.00
2022-09-27T23:29:39.308Z,100.00
2022-09-27T23:32:07.820Z,100.00
2022-09-27T23:34:36.363Z,100.00
2022-09-27T23:37:05.990Z,100.00
2022-09-27T23:39:34.561Z,100.00
2022-09-27T23:42:03.306Z,100.00
2022-09-27T23:44:32.025Z,100.00
2022-09-27T23:47:02.478Z,100.00
2022-09-27T23:49:32.237Z,100.00
2022-09-27T23:52:01.689Z,100.00
2022-09-27T23:54:30.696Z,100.00
2022-09-27T23:56:59.654Z,100.00
2022-09-27T23:59:28.653Z,100.00
